Terminal Aerodrome Forecast
Issued by NWS

Home | Current Version | Previous Version | Text Only | Print | Product List | Glossary On
Versions: 1 2 3 4 5 6 7 8 9 10 11 12 13 14 15 16 17 18 19
000
FTUS43 KSGF 020956 AAA
TAFJLN
TAF AMD
KJLN 020956Z 0210/0306 34005KT P6SM BKN020
     FM021600 35005KT P6SM BKN025
     FM021900 33008KT P6SM BKN035
     FM030300 34004KT P6SM SKC=

USA.gov is the U.S. government's official web portal to all federal, state and local government web resources and services.